Time;durP1;ratioP1;P1;durP2;ratioP2;P2;SDS_P1;SDS_P2;PMS_P1;PMS_P2;Temp;Humidity;BMP_temperature;BMP_pressure;BME280_temperature;BME280_humidity;BME280_pressure;Samples;Min_cycle;Max_cycle;Signal;HPM_P1;HPM_P2
2022/10/02 00:01:35;;;;;;;14.60;1.58;;;11.80;99.90;;;;;;4901018;29;20056;-79
2022/10/02 00:04:02;;;;;;;7.03;1.77;;;11.80;99.90;;;;;;4900903;29;20492;-79
2022/10/02 00:06:43;;;;;;;8.82;1.35;;;11.80;99.90;;;;;;4917852;29;20048;-79
2022/10/02 00:09:17;;;;;;;10.57;1.45;;;11.80;99.90;;;;;;4900951;29;20059;-79
2022/10/02 00:11:45;;;;;;;9.45;1.80;;;11.80;99.90;;;;;;4900800;29;20052;-79
2022/10/02 00:14:15;;;;;;;12.32;1.73;;;11.80;99.90;;;;;;4917783;29;20146;-78
2022/10/02 00:16:45;;;;;;;12.63;1.63;;;11.70;99.90;;;;;;4900925;29;20048;-79
2022/10/02 00:19:14;;;;;;;9.85;1.70;;;11.70;99.90;;;;;;4900728;29;20484;-79
2022/10/02 00:22:15;;;;;;;7.50;1.55;;;11.70;99.90;;;;;;4900711;29;20059;-79
2022/10/02 00:25:05;;;;;;;10.18;1.92;;;11.70;99.90;;;;;;4900713;29;20135;-79
2022/10/02 00:27:42;;;;;;;13.90;1.70;;;11.70;99.90;;;;;;4900632;29;20480;-79
2022/10/02 00:30:12;;;;;;;9.30;1.20;;;11.60;99.90;;;;;;4900924;29;20048;-79
2022/10/02 00:32:56;;;;;;;7.45;1.38;;;11.50;99.90;;;;;;4917608;29;20050;-79
2022/10/02 00:36:02;;;;;;;9.65;1.50;;;11.50;99.90;;;;;;4917796;29;20096;-79
2022/10/02 00:38:46;;;;;;;9.30;1.52;;;11.40;99.90;;;;;;4917609;29;20040;-79
2022/10/02 00:41:26;;;;;;;8.90;1.60;;;11.40;99.90;;;;;;4917469;29;20412;-79
2022/10/02 00:44:18;;;;;;;8.70;1.83;;;11.40;99.90;;;;;;4917369;29;20388;-79
2022/10/02 00:47:11;;;;;;;9.05;1.75;;;11.30;99.90;;;;;;4900261;29;20056;-79
2022/10/02 00:49:55;;;;;;;6.43;1.88;;;11.40;99.90;;;;;;4917560;29;20052;-79
2022/10/02 00:52:38;;;;;;;7.32;2.55;;;11.40;99.90;;;;;;4917411;29;20052;-79
2022/10/02 00:55:17;;;;;;;12.50;2.20;;;11.30;99.90;;;;;;4900866;29;20048;-79
2022/10/02 00:57:46;;;;;;;8.63;1.73;;;11.30;99.90;;;;;;4917057;29;20390;-79
2022/10/02 01:00:17;;;;;;;10.88;1.77;;;11.30;99.90;;;;;;4917011;29;20501;-79
2022/10/02 01:02:50;;;;;;;16.58;2.30;;;11.30;99.90;;;;;;4917325;29;20044;-79
2022/10/02 01:05:15;;;;;;;;;;;11.20;99.90;;;;;;4917722;29;20055;-79
2022/10/02 01:07:45;;;;;;;15.60;2.33;;;11.30;99.90;;;;;;4900356;29;20310;-79
2022/10/02 01:10:12;;;;;;;12.57;2.13;;;11.20;99.90;;;;;;4917157;29;20409;-79
2022/10/02 01:12:38;;;;;;;13.85;2.00;;;11.20;99.90;;;;;;4900163;29;20063;-79
2022/10/02 01:15:17;;;;;;;10.85;2.13;;;11.20;99.90;;;;;;4916882;29;20425;-79
2022/10/02 01:17:44;;;;;;;11.00;2.05;;;11.20;99.90;;;;;;4917289;29;20044;-79
2022/10/02 01:20:35;;;;;;;10.48;1.88;;;11.20;99.90;;;;;;4900284;29;20404;-79
2022/10/02 01:23:14;;;;;;;19.98;3.17;;;11.10;99.90;;;;;;4917141;29;20107;-79
2022/10/02 01:25:41;;;;;;;8.98;1.85;;;11.10;99.90;;;;;;4917178;29;20050;-79
2022/10/02 01:28:06;;;;;;;8.70;2.00;;;11.10;99.90;;;;;;4900055;29;20083;-79
2022/10/02 01:30:35;;;;;;;10.93;2.10;;;11.10;99.90;;;;;;4917080;29;20104;-79
2022/10/02 01:33:02;;;;;;;9.45;2.28;;;11.00;99.90;;;;;;4918107;29;20044;-79
2022/10/02 01:35:30;;;;;;;13.90;2.60;;;11.00;99.90;;;;;;4920443;29;20100;-78
2022/10/02 01:37:58;;;;;;;10.73;2.30;;;11.00;99.90;;;;;;4903786;29;20044;-79
2022/10/02 01:40:29;;;;;;;9.70;2.28;;;11.10;99.90;;;;;;4920482;29;20059;-79
2022/10/02 01:43:24;;;;;;;12.27;3.75;;;11.10;99.90;;;;;;4903363;29;20127;-79
2022/10/02 01:46:07;;;;;;;9.07;2.30;;;11.00;99.90;;;;;;4919029;29;20052;-79
2022/10/02 01:49:11;;;;;;;9.00;2.20;;;11.00;99.90;;;;;;4903656;29;20052;-79
2022/10/02 01:52:01;;;;;;;13.43;2.75;;;11.00;99.90;;;;;;4903406;29;20044;-79
2022/10/02 01:54:55;;;;;;;14.45;3.05;;;11.00;99.90;;;;;;4903178;29;20126;-79
2022/10/02 01:57:42;;;;;;;10.50;2.55;;;11.00;99.90;;;;;;4903232;29;20044;-79
2022/10/02 02:00:21;;;;;;;14.20;2.47;;;10.90;99.90;;;;;;4916492;29;20576;-79
2022/10/02 02:03:14;;;;;;;15.82;2.53;;;10.90;99.90;;;;;;4920250;29;20040;-79
2022/10/02 02:06:01;;;;;;;11.40;2.25;;;10.90;99.90;;;;;;4920209;29;20052;-78
2022/10/02 02:08:35;;;;;;;10.05;1.95;;;11.00;99.90;;;;;;4919970;29;20404;-79
2022/10/02 02:11:14;;;;;;;13.13;3.05;;;11.00;99.90;;;;;;4918665;29;20052;-78
2022/10/02 02:13:49;;;;;;;11.20;2.58;;;11.00;99.90;;;;;;4919697;29;20416;-79
2022/10/02 02:16:25;;;;;;;10.63;2.58;;;11.10;99.90;;;;;;4918655;29;20054;-79
2022/10/02 02:19:20;;;;;;;10.60;2.25;;;11.10;99.90;;;;;;4918619;29;20503;-79
2022/10/02 02:21:55;;;;;;;14.80;2.53;;;11.10;99.90;;;;;;4918663;29;20052;-79
2022/10/02 02:24:38;;;;;;;13.65;2.58;;;11.20;99.90;;;;;;4919886;29;20040;-79
2022/10/02 02:27:06;;;;;;;14.38;2.55;;;11.20;99.90;;;;;;4919743;29;20070;-79
2022/10/02 02:29:35;;;;;;;16.73;3.70;;;11.20;99.90;;;;;;4919468;29;20374;-80
2022/10/02 02:32:05;;;;;;;13.95;2.85;;;11.40;99.90;;;;;;4918504;29;20055;-79
2022/10/02 02:34:39;;;;;;;20.45;3.65;;;11.40;99.90;;;;;;4919575;29;20138;-79
2022/10/02 02:37:10;;;;;;;12.65;2.97;;;11.40;99.90;;;;;;4918327;29;20072;-79
2022/10/02 02:39:39;;;;;;;12.57;2.40;;;11.40;99.90;;;;;;4919433;29;20488;-80
2022/10/02 02:42:07;;;;;;;15.23;2.58;;;11.40;99.90;;;;;;4918282;29;20044;-79
2022/10/02 02:44:40;;;;;;;13.30;2.13;;;11.40;99.90;;;;;;4918070;29;20096;-79
2022/10/02 02:47:15;;;;;;;;;;;11.40;99.90;;;;;;4919873;29;20115;-79
2022/10/02 02:49:53;;;;;;;12.93;2.60;;;11.40;99.90;;;;;;4918080;29;19923;-79
2022/10/02 02:52:41;;;;;;;8.07;1.65;;;11.40;99.90;;;;;;4918824;29;20055;-79
2022/10/02 02:55:26;;;;;;;11.98;2.38;;;11.30;99.90;;;;;;4919055;29;20516;-79
2022/10/02 02:58:02;;;;;;;14.27;2.00;;;11.20;99.90;;;;;;4919292;29;20104;-79
2022/10/02 03:00:28;;;;;;;6.57;2.00;;;11.20;99.90;;;;;;4919125;29;20059;-79
2022/10/02 03:02:54;;;;;;;10.23;3.10;;;11.20;99.90;;;;;;4902104;29;20052;-79
2022/10/02 03:05:21;;;;;;;10.15;1.70;;;11.10;99.90;;;;;;4919044;29;20052;-79
2022/10/02 03:08:04;;;;;;;12.10;2.50;;;11.20;99.90;;;;;;4919033;29;20037;-79
2022/10/02 03:10:45;;;;;;;14.15;2.05;;;11.10;99.90;;;;;;4902272;29;20055;-79
2022/10/02 03:13:13;;;;;;;10.40;2.28;;;11.20;99.90;;;;;;4918791;29;20103;-79
2022/10/02 03:15:52;;;;;;;11.02;2.60;;;11.30;99.90;;;;;;4918856;29;20048;-79
2022/10/02 03:18:30;;;;;;;12.23;2.60;;;11.40;99.90;;;;;;4918815;29;20052;-79
2022/10/02 03:21:13;;;;;;;14.30;2.63;;;11.40;99.90;;;;;;4901788;29;20127;-79
2022/10/02 03:23:53;;;;;;;;;;;11.50;99.90;;;;;;4902403;29;20488;-79
2022/10/02 03:26:27;;;;;;;15.75;2.47;;;11.50;99.90;;;;;;4918677;29;19923;-79
2022/10/02 03:28:55;;;;;;;21.38;2.83;;;11.60;99.90;;;;;;4918876;29;20488;-80
2022/10/02 03:31:23;;;;;;;15.73;2.65;;;11.60;99.90;;;;;;4901543;29;20062;-80
2022/10/02 03:33:52;;;;;;;15.20;2.70;;;11.60;99.90;;;;;;4918431;29;20052;-80
2022/10/02 03:36:19;;;;;;;12.13;2.75;;;11.70;99.90;;;;;;4902534;29;20088;-79
2022/10/02 03:38:46;;;;;;;13.07;2.38;;;11.60;99.90;;;;;;4918428;29;20044;-79
2022/10/02 03:41:13;;;;;;;16.02;2.50;;;11.70;99.90;;;;;;4918376;29;20051;-79
2022/10/02 03:43:39;;;;;;;15.45;2.80;;;11.70;99.90;;;;;;4918173;29;20352;-79
2022/10/02 03:46:04;;;;;;;13.82;2.78;;;11.70;99.90;;;;;;4918102;29;20404;-79
2022/10/02 03:48:30;;;;;;;11.55;2.15;;;11.70;99.90;;;;;;4918186;29;20492;-79
2022/10/02 03:50:57;;;;;;;15.13;2.72;;;11.70;99.90;;;;;;4918479;29;20048;-79
2022/10/02 03:53:30;;;;;;;13.27;2.60;;;11.70;99.90;;;;;;4918077;29;20187;-79
2022/10/02 03:56:08;;;;;;;13.20;2.45;;;11.60;99.90;;;;;;4917530;29;20377;-79
2022/10/02 03:58:38;;;;;;;12.52;3.63;;;11.70;99.90;;;;;;4917915;29;20048;-79
2022/10/02 04:01:11;;;;;;;17.00;2.40;;;11.70;99.90;;;;;;4918017;29;20122;-79
2022/10/02 04:03:47;;;;;;;;;;;11.70;99.90;;;;;;4918482;29;20048;-80
2022/10/02 04:06:33;;;;;;;15.20;2.90;;;11.70;99.90;;;;;;4917773;29;20437;-79
2022/10/02 04:09:09;;;;;;;18.27;3.65;;;11.80;99.90;;;;;;4918068;29;20056;-79
2022/10/02 04:11:44;;;;;;;10.80;2.80;;;11.80;99.90;;;;;;4917912;29;20044;-79
2022/10/02 04:14:17;;;;;;;22.30;2.95;;;11.80;99.90;;;;;;4917797;29;20144;-79
2022/10/02 04:17:00;;;;;;;17.83;2.53;;;11.80;99.90;;;;;;4917883;29;20044;-79
2022/10/02 04:19:32;;;;;;;17.10;2.95;;;11.80;99.90;;;;;;4900829;29;20110;-79
2022/10/02 04:22:30;;;;;;;18.58;3.17;;;11.80;99.90;;;;;;4917855;29;20071;-79
2022/10/02 04:25:04;;;;;;;15.10;2.78;;;11.80;99.90;;;;;;4917895;29;20132;-79
2022/10/02 04:27:39;;;;;;;20.27;2.50;;;11.70;99.90;;;;;;4917767;29;20044;-79
2022/10/02 04:30:09;;;;;;;12.45;2.55;;;11.70;99.90;;;;;;4900676;29;20052;-79
2022/10/02 04:32:36;;;;;;;16.63;2.67;;;11.70;99.90;;;;;;4917639;29;20040;-79
2022/10/02 04:35:11;;;;;;;23.17;2.75;;;11.70;99.90;;;;;;4900420;29;20052;-79
2022/10/02 04:38:21;;;;;;;17.35;2.47;;;11.60;99.90;;;;;;4917761;29;20054;-79
2022/10/02 04:41:08;;;;;;;14.15;2.15;;;11.60;99.90;;;;;;4896460;29;20052;-79
2022/10/02 04:43:51;;;;;;;11.40;2.40;;;11.60;99.90;;;;;;4915845;29;20098;-79
2022/10/02 04:46:28;;;;;;;13.70;2.55;;;11.60;99.90;;;;;;4917541;29;20040;-80
2022/10/02 04:49:22;;;;;;;15.18;2.38;;;11.50;99.90;;;;;;4917418;29;20051;-80
2022/10/02 04:51:56;;;;;;;15.60;2.17;;;11.50;99.90;;;;;;4917270;29;20056;-80
2022/10/02 04:54:29;;;;;;;17.67;2.30;;;11.50;99.90;;;;;;4917383;29;20048;-80
2022/10/02 04:57:15;;;;;;;;;;;11.50;99.90;;;;;;4917771;29;20416;-79
2022/10/02 05:00:00;;;;;;;16.73;2.20;;;11.40;99.90;;;;;;4916384;29;19930;-80
2022/10/02 05:02:46;;;;;;;13.90;2.25;;;11.40;99.90;;;;;;4917188;29;20552;-79
2022/10/02 05:05:34;;;;;;;16.42;2.30;;;11.40;99.90;;;;;;4900544;29;20052;-79
2022/10/02 05:08:27;;;;;;;13.32;2.53;;;11.40;99.90;;;;;;4901609;29;20059;-80
2022/10/02 05:11:08;;;;;;;14.75;2.13;;;11.30;99.90;;;;;;4921040;29;20048;-79
2022/10/02 05:13:43;;;;;;;13.35;2.17;;;11.30;99.90;;;;;;4920757;29;20183;-80
2022/10/02 05:16:22;;;;;;;12.65;1.88;;;11.20;99.90;;;;;;4904087;29;20420;-79
2022/10/02 05:18:57;;;;;;;15.07;2.30;;;11.20;99.90;;;;;;4903874;29;20063;-80
2022/10/02 05:21:28;;;;;;;12.95;2.28;;;11.10;99.90;;;;;;4904096;29;20060;-80
2022/10/02 05:24:10;;;;;;;14.25;2.33;;;11.10;99.90;;;;;;4903653;29;20392;-80
2022/10/02 05:26:56;;;;;;;13.63;2.50;;;11.00;99.90;;;;;;4920714;29;20124;-80
2022/10/02 05:29:51;;;;;;;16.00;2.50;;;11.00;99.90;;;;;;4920640;29;20060;-80
2022/10/02 05:32:58;;;;;;;13.40;2.30;;;10.90;99.90;;;;;;4920130;29;20091;-80
2022/10/02 05:35:24;;;;;;;10.93;1.88;;;10.90;99.90;;;;;;4910843;29;20084;-79
2022/10/02 05:38:21;;;;;;;10.90;2.67;;;10.80;99.90;;;;;;4920107;29;20048;-79
2022/10/02 05:41:16;;;;;;;12.20;2.45;;;10.80;99.90;;;;;;4920305;29;20048;-80
2022/10/02 05:43:46;;;;;;;14.27;1.95;;;10.80;99.90;;;;;;4920390;29;20054;-79
2022/10/02 05:46:20;;;;;;;14.18;2.40;;;10.80;99.90;;;;;;4920274;29;20048;-79
2022/10/02 05:48:54;;;;;;;13.18;2.22;;;10.80;99.90;;;;;;4920269;29;20488;-79
2022/10/02 05:51:35;;;;;;;13.45;1.98;;;10.80;99.90;;;;;;4920337;29;20087;-79
2022/10/02 05:54:35;;;;;;;13.90;3.42;;;10.70;99.90;;;;;;4919962;29;20493;-79
2022/10/02 05:57:20;;;;;;;13.25;1.83;;;10.80;99.90;;;;;;4920254;29;20048;-79
2022/10/02 06:00:17;;;;;;;15.80;2.30;;;10.80;99.90;;;;;;4913458;29;20059;-79
2022/10/02 06:02:45;;;;;;;14.77;2.60;;;10.80;99.90;;;;;;4920068;29;20052;-79
2022/10/02 06:05:24;;;;;;;17.83;3.08;;;10.90;99.90;;;;;;4920149;29;20123;-79
2022/10/02 06:07:55;;;;;;;14.65;2.50;;;11.00;99.90;;;;;;4918605;29;20052;-79
2022/10/02 06:10:29;;;;;;;13.80;2.60;;;11.00;99.90;;;;;;4920013;29;20095;-79
2022/10/02 06:13:04;;;;;;;10.75;2.42;;;11.10;99.90;;;;;;4919957;29;20068;-79
2022/10/02 06:15:38;;;;;;;18.75;2.75;;;11.10;99.90;;;;;;4918407;29;20108;-79
2022/10/02 06:18:09;;;;;;;10.98;2.13;;;11.10;99.90;;;;;;4919555;29;20076;-79
2022/10/02 06:20:48;;;;;;;15.27;2.75;;;11.20;99.90;;;;;;4919650;29;20052;-79
2022/10/02 06:23:19;;;;;;;18.13;3.17;;;11.20;99.90;;;;;;4919832;29;20051;-80
2022/10/02 06:26:05;;;;;;;17.50;4.10;;;11.30;99.90;;;;;;4918313;29;20052;-80
2022/10/02 06:28:34;;;;;;;13.18;2.75;;;11.40;99.90;;;;;;4919686;29;20552;-80
2022/10/02 06:31:08;;;;;;;22.17;3.60;;;11.50;99.90;;;;;;4918120;29;20056;-80
2022/10/02 06:33:34;;;;;;;26.17;4.65;;;11.60;99.90;;;;;;4918000;29;20084;-79
2022/10/02 06:36:20;;;;;;;21.98;2.95;;;11.70;99.90;;;;;;4918461;29;20052;-78
2022/10/02 06:39:20;;;;;;;18.85;3.47;;;11.70;99.90;;;;;;4918154;29;20056;-78
2022/10/02 06:42:03;;;;;;;37.78;5.32;;;11.80;99.90;;;;;;4919385;29;20059;-79
2022/10/02 06:44:41;;;;;;;28.85;4.65;;;11.80;99.90;;;;;;4918261;29;20048;-79
2022/10/02 06:47:33;;;;;;;15.52;2.88;;;11.70;99.90;;;;;;4917960;29;20494;-79
2022/10/02 06:50:18;;;;;;;23.13;3.70;;;11.70;99.90;;;;;;4919096;29;20388;-79
2022/10/02 06:53:00;;;;;;;15.07;3.42;;;11.70;99.90;;;;;;4918900;29;20628;-78
2022/10/02 06:55:37;;;;;;;19.93;4.07;;;11.80;99.90;;;;;;4918940;29;20543;-78
2022/10/02 06:58:27;;;;;;;15.55;3.00;;;11.80;99.90;;;;;;4918594;29;20163;-79
2022/10/02 07:01:09;;;;;;;19.50;2.92;;;11.90;99.90;;;;;;4919020;29;20056;-78
2022/10/02 07:03:38;;;;;;;17.33;3.03;;;11.90;99.90;;;;;;4918907;29;20048;-78
2022/10/02 07:06:23;;;;;;;16.10;3.30;;;11.90;99.90;;;;;;4902087;29;20044;-79
2022/10/02 07:09:12;;;;;;;14.30;2.83;;;11.90;99.90;;;;;;4918929;29;20047;-78
2022/10/02 07:11:58;;;;;;;14.88;2.83;;;11.90;99.90;;;;;;4918839;29;20123;-79
2022/10/02 07:14:36;;;;;;;21.02;3.22;;;12.00;99.90;;;;;;4918591;29;20500;-79
2022/10/02 07:17:25;;;;;;;15.77;3.03;;;12.00;99.90;;;;;;4918839;29;20048;-79
2022/10/02 07:20:09;;;;;;;14.52;2.38;;;12.10;99.90;;;;;;4918823;29;20073;-79
2022/10/02 07:22:54;;;;;;;20.00;2.92;;;12.20;99.90;;;;;;4918589;29;20576;-78
2022/10/02 07:25:23;;;;;;;18.23;2.75;;;12.20;99.90;;;;;;4918615;29;20096;-78
2022/10/02 07:28:42;;;;;;;11.65;2.22;;;12.30;99.90;;;;;;4901635;29;20062;-84
2022/10/02 07:31:33;;;;;;;12.68;2.33;;;12.40;99.90;;;;;;4883355;29;20071;-79
2022/10/02 07:34:28;;;;;;;11.80;1.92;;;12.40;99.90;;;;;;4918577;29;20551;-79
2022/10/02 07:37:02;;;;;;;17.45;2.33;;;12.50;99.90;;;;;;4901652;29;20504;-78
2022/10/02 07:39:57;;;;;;;10.18;1.90;;;12.50;99.90;;;;;;4918507;29;20066;-78
2022/10/02 07:42:48;;;;;;;8.95;1.90;;;12.50;99.90;;;;;;4918284;29;20107;-78
2022/10/02 07:45:40;;;;;;;10.50;2.08;;;12.60;99.90;;;;;;4901088;29;20055;-78
2022/10/02 07:48:06;;;;;;;14.13;2.47;;;12.70;99.90;;;;;;4898525;29;20067;-78
2022/10/02 07:50:53;;;;;;;13.65;2.80;;;12.80;99.90;;;;;;4901023;29;20103;-78
2022/10/02 07:53:23;;;;;;;17.05;2.65;;;12.90;99.90;;;;;;4900955;29;20543;-79
2022/10/02 07:55:52;;;;;;;15.75;2.25;;;12.90;99.90;;;;;;4900854;29;20094;-79
2022/10/02 07:58:35;;;;;;;17.10;2.53;;;12.90;99.90;;;;;;4900638;29;20095;-79
2022/10/02 08:01:04;;;;;;;;;;;12.90;99.90;;;;;;4918284;29;20044;-78
2022/10/02 08:03:33;;;;;;;12.20;3.88;;;12.90;99.90;;;;;;4901033;29;19945;-79
2022/10/02 08:05:59;;;;;;;12.55;2.50;;;12.90;99.90;;;;;;4900731;29;20405;-78
2022/10/02 08:08:49;;;;;;;10.70;2.40;;;12.90;99.90;;;;;;4917836;29;20405;-78
2022/10/02 08:11:22;;;;;;;11.02;2.53;;;13.00;99.90;;;;;;4917567;29;20539;-79
2022/10/02 08:13:54;;;;;;;12.98;2.78;;;13.30;99.90;;;;;;4900624;29;20048;-79
2022/10/02 08:16:25;;;;;;;12.38;2.58;;;13.40;99.90;;;;;;4917797;29;20403;-78
2022/10/02 08:19:00;;;;;;;15.93;2.70;;;13.40;99.90;;;;;;4917531;29;20508;-78
2022/10/02 08:21:29;;;;;;;15.38;2.58;;;13.30;99.90;;;;;;4900511;29;20527;-78
2022/10/02 08:24:00;;;;;;;14.43;2.65;;;13.30;99.90;;;;;;4917777;29;20040;-78
2022/10/02 08:26:33;;;;;;;9.48;2.75;;;13.30;99.90;;;;;;4926187;29;20506;-79
2022/10/02 08:29:10;;;;;;;14.43;2.30;;;13.30;99.90;;;;;;4904395;29;20055;-78
2022/10/02 08:31:36;;;;;;;15.63;2.45;;;13.20;99.90;;;;;;4935888;29;20059;-78
2022/10/02 08:34:23;;;;;;;15.48;2.65;;;13.20;99.90;;;;;;4918896;29;20055;-78
2022/10/02 08:37:07;;;;;;;15.38;2.45;;;13.20;99.90;;;;;;4918839;29;20067;-78
2022/10/02 08:39:54;;;;;;;14.75;2.80;;;13.20;99.90;;;;;;4919012;29;20054;-78
2022/10/02 08:43:07;;;;;;;13.02;2.30;;;13.20;99.90;;;;;;4918815;29;20052;-79
2022/10/02 08:46:03;;;;;;;18.33;3.08;;;13.30;99.90;;;;;;4919197;29;20051;-78
2022/10/02 08:48:53;;;;;;;9.60;2.95;;;13.40;99.90;;;;;;4935756;29;20143;-80
2022/10/02 08:51:43;;;;;;;10.38;2.33;;;13.50;99.90;;;;;;4917198;29;20055;-79
2022/10/02 08:54:27;;;;;;;14.93;3.08;;;13.60;99.90;;;;;;4928766;29;20087;-79
2022/10/02 08:57:12;;;;;;;11.18;2.47;;;13.70;99.90;;;;;;4934958;29;20491;-79
2022/10/02 09:00:13;;;;;;;12.98;2.40;;;13.90;99.90;;;;;;4947566;29;20062;-80
2022/10/02 09:03:08;;;;;;;12.05;2.63;;;14.00;99.90;;;;;;4955340;29;20051;-80
2022/10/02 09:05:39;;;;;;;11.35;2.78;;;14.10;99.90;;;;;;4951014;29;20062;-79
2022/10/02 09:08:43;;;;;;;14.25;2.50;;;14.20;99.90;;;;;;4951763;29;20114;-79
2022/10/02 09:11:12;;;;;;;13.43;2.80;;;14.30;99.90;;;;;;4954419;28;20058;-79
2022/10/02 09:14:08;;;;;;;12.27;2.50;;;14.50;99.90;;;;;;4953534;29;20054;-79
2022/10/02 09:16:56;;;;;;;15.32;2.38;;;14.70;99.90;;;;;;4953739;29;20062;-79
2022/10/02 09:19:59;;;;;;;17.50;3.22;;;14.70;99.90;;;;;;4953784;29;20082;-79
2022/10/02 09:22:40;;;;;;;16.13;2.72;;;14.90;99.90;;;;;;4939027;29;20055;-79
2022/10/02 09:25:44;;;;;;;11.90;1.95;;;15.00;99.90;;;;;;4931862;29;20079;-80
2022/10/02 09:28:12;;;;;;;12.43;2.78;;;15.10;99.90;;;;;;4932543;29;20048;-79
2022/10/02 09:30:41;;;;;;;14.77;2.97;;;15.10;99.90;;;;;;4927608;29;20051;-80
2022/10/02 09:33:38;;;;;;;15.00;2.13;;;15.20;99.90;;;;;;4934378;29;20048;-79
2022/10/02 09:36:44;;;;;;;16.73;2.28;;;15.20;99.90;;;;;;4934664;29;20135;-84
2022/10/02 09:39:25;;;;;;;22.88;3.15;;;15.40;99.90;;;;;;4934565;29;20135;-86
2022/10/02 09:42:19;;;;;;;13.48;2.45;;;15.40;99.90;;;;;;4915647;29;20048;-80
2022/10/02 09:45:21;;;;;;;19.88;3.13;;;15.50;99.90;;;;;;4915312;29;20048;-80
2022/10/02 09:48:31;;;;;;;11.77;2.75;;;15.60;99.90;;;;;;4915335;29;20460;-79
2022/10/02 09:51:23;;;;;;;17.98;2.28;;;15.70;99.90;;;;;;4915478;29;20055;-79
2022/10/02 09:53:58;;;;;;;13.25;1.90;;;15.80;99.90;;;;;;4916170;29;20591;-79
2022/10/02 09:57:00;;;;;;;15.80;2.80;;;15.90;99.90;;;;;;4920170;29;20052;-79
2022/10/02 09:59:35;;;;;;;10.00;1.70;;;15.80;99.90;;;;;;4918896;29;20064;-80
2022/10/02 10:02:09;;;;;;;16.02;2.50;;;15.80;99.90;;;;;;4918976;29;20074;-79
2022/10/02 10:05:15;;;;;;;14.70;2.30;;;15.80;99.90;;;;;;4902562;29;20051;-80
2022/10/02 10:07:44;;;;;;;15.15;1.90;;;15.90;99.90;;;;;;4902549;29;20083;-80
2022/10/02 10:10:28;;;;;;;10.18;2.00;;;15.90;99.90;;;;;;4902460;29;20445;-79
2022/10/02 10:13:32;;;;;;;15.93;2.35;;;16.00;99.90;;;;;;4919800;29;20052;-79
2022/10/02 10:15:57;;;;;;;;;;;16.00;99.90;;;;;;4919747;29;20496;-79
2022/10/02 10:18:41;;;;;;;16.30;2.60;;;16.10;99.90;;;;;;4902292;29;19923;-79
2022/10/02 10:21:21;;;;;;;7.65;1.45;;;16.20;99.90;;;;;;4902329;29;20048;-78
2022/10/02 10:24:14;;;;;;;16.20;2.38;;;16.30;99.90;;;;;;4902597;29;20404;-82
2022/10/02 10:26:59;;;;;;;13.70;3.45;;;16.30;99.90;;;;;;4902325;29;20052;-83
2022/10/02 10:30:04;;;;;;;16.08;2.63;;;16.40;99.90;;;;;;4902443;29;20059;-82
2022/10/02 10:33:08;;;;;;;18.35;3.17;;;16.40;99.90;;;;;;4902499;29;20115;-82
2022/10/02 10:36:02;;;;;;;11.45;2.60;;;16.40;99.90;;;;;;4902121;29;20060;-82
2022/10/02 10:38:51;;;;;;;15.65;3.22;;;16.50;99.90;;;;;;4902615;29;20050;-82
2022/10/02 10:41:47;;;;;;;13.95;2.92;;;16.40;99.90;;;;;;4902479;29;20130;-82
2022/10/02 10:44:15;;;;;;;15.32;3.55;;;16.40;99.90;;;;;;4919037;29;20444;-82
2022/10/02 10:47:19;;;;;;;12.07;2.72;;;16.40;99.90;;;;;;4902656;29;20127;-82
2022/10/02 10:50:07;;;;;;;13.88;3.47;;;16.40;99.90;;;;;;4902292;29;20056;-82
2022/10/02 10:52:44;;;;;;;16.30;2.72;;;16.60;99.90;;;;;;4919146;29;20051;-90
2022/10/02 10:55:34;;;;;;;12.15;3.75;;;16.60;99.90;;;;;;4901816;29;20051;-82
2022/10/02 10:58:34;;;;;;;13.27;2.78;;;16.60;99.90;;;;;;4902098;29;20056;-81
2022/10/02 11:01:18;;;;;;;16.15;4.60;;;16.60;99.90;;;;;;4901976;29;20147;-81
2022/10/02 11:03:57;;;;;;;12.05;2.90;;;16.60;99.90;;;;;;4918739;29;20048;-82
2022/10/02 11:06:40;;;;;;;14.07;3.05;;;16.70;99.90;;;;;;4901883;29;20064;-84
2022/10/02 11:09:08;;;;;;;;;;;16.70;99.90;;;;;;4902364;29;20048;-81
2022/10/02 11:11:54;;;;;;;15.18;3.42;;;16.80;99.90;;;;;;4901498;29;19923;-82
2022/10/02 11:15:03;;;;;;;14.13;2.92;;;16.80;99.90;;;;;;4901537;29;20070;-84
2022/10/02 11:17:59;;;;;;;12.38;2.75;;;16.80;99.90;;;;;;4873005;29;20131;-79
2022/10/02 11:20:36;;;;;;;20.77;3.45;;;16.90;99.90;;;;;;4910888;29;20055;-83
2022/10/02 11:23:32;;;;;;;13.02;2.60;;;16.90;99.90;;;;;;4920012;29;20051;-83
2022/10/02 11:26:14;;;;;;;9.95;3.03;;;17.00;99.90;;;;;;4920313;29;20055;-83
2022/10/02 11:28:59;;;;;;;16.55;3.22;;;17.10;99.90;;;;;;4920431;29;20063;-83
2022/10/02 11:31:52;;;;;;;20.20;2.90;;;17.10;99.90;;;;;;4937404;29;20135;-85
2022/10/02 11:34:41;;;;;;;17.05;3.00;;;17.10;99.90;;;;;;4937183;29;20044;-81
2022/10/02 11:37:25;;;;;;;14.63;3.35;;;17.20;99.90;;;;;;4937475;29;20039;-81
2022/10/02 11:40:19;;;;;;;10.63;2.20;;;17.20;99.90;;;;;;4937434;29;20055;-80
2022/10/02 11:42:56;;;;;;;13.63;2.33;;;17.10;99.90;;;;;;4920305;29;20391;-80
2022/10/02 11:45:54;;;;;;;15.43;3.38;;;17.10;99.90;;;;;;4920287;29;20058;-80
2022/10/02 11:48:55;;;;;;;11.90;2.55;;;17.00;99.90;;;;;;4920170;29;20114;-80
2022/10/02 11:51:27;;;;;;;18.42;3.58;;;17.10;99.90;;;;;;4920183;29;20484;-80
2022/10/02 11:54:17;;;;;;;11.27;3.33;;;17.10;99.90;;;;;;4937121;29;20048;-80
2022/10/02 11:57:05;;;;;;;12.70;2.40;;;17.00;99.90;;;;;;4920152;29;20059;-80
2022/10/02 12:00:04;;;;;;;16.55;2.45;;;17.00;99.90;;;;;;4940186;29;20062;-80
2022/10/02 12:02:46;;;;;;;13.60;2.30;;;16.70;99.90;;;;;;4956214;28;20094;-80
2022/10/02 12:05:34;;;;;;;13.82;2.13;;;16.60;99.90;;;;;;4956098;28;20163;-80
2022/10/02 12:08:33;;;;;;;14.10;2.92;;;16.60;99.90;;;;;;4908904;29;20094;-81
2022/10/02 12:11:07;;;;;;;9.65;1.90;;;16.70;99.90;;;;;;4874002;28;20066;-81
2022/10/02 12:13:38;;;;;;;14.77;2.88;;;16.60;99.90;;;;;;4954691;29;20566;-80
2022/10/02 12:16:27;;;;;;;20.48;2.42;;;16.70;99.90;;;;;;4955763;28;20126;-80
2022/10/02 12:19:20;;;;;;;15.23;2.47;;;16.80;99.90;;;;;;4955880;28;20051;-80
2022/10/02 12:28:21;;;;;;;14.30;2.63;;;17.10;99.90;;;;;;4955576;29;20115;-80
2022/10/02 12:30:55;;;;;;;13.70;2.25;;;17.20;99.90;;;;;;4954250;29;20055;-79
2022/10/02 12:33:39;;;;;;;18.58;2.67;;;17.10;99.90;;;;;;4954488;29;20155;-79
2022/10/02 12:36:33;;;;;;;13.48;2.47;;;17.20;99.90;;;;;;4954538;29;20152;-80
2022/10/02 12:39:20;;;;;;;16.67;2.63;;;17.30;99.90;;;;;;4955577;28;20103;-79
2022/10/02 12:42:13;;;;;;;15.25;2.58;;;17.40;99.90;;;;;;4954290;29;20495;-79
2022/10/02 12:44:48;;;;;;;14.90;2.78;;;17.30;99.90;;;;;;4954401;29;20090;-79
2022/10/02 12:47:46;;;;;;;13.73;2.58;;;17.20;99.90;;;;;;4954183;29;20579;-79
2022/10/02 12:50:22;;;;;;;18.08;3.10;;;17.40;99.90;;;;;;4942067;29;20066;-79
2022/10/02 12:53:15;;;;;;;16.13;3.03;;;17.40;99.90;;;;;;4955580;28;20054;-80
2022/10/02 12:56:11;;;;;;;19.17;2.83;;;17.40;99.90;;;;;;4953952;29;20407;-80
2022/10/02 12:58:42;;;;;;;16.10;2.65;;;17.40;99.90;;;;;;4954418;29;20067;-80
2022/10/02 13:01:29;;;;;;;11.85;2.08;;;17.40;99.90;;;;;;4953953;29;20067;-79
2022/10/02 13:04:28;;;;;;;12.88;2.03;;;17.40;99.90;;;;;;4954314;29;20066;-80
2022/10/02 13:07:00;;;;;;;11.35;1.85;;;17.40;99.90;;;;;;4954140;29;20057;-80
2022/10/02 13:09:37;;;;;;;12.18;1.98;;;17.30;99.90;;;;;;4953790;29;20039;-79
2022/10/02 13:12:14;;;;;;;11.30;2.28;;;17.40;99.90;;;;;;4954021;29;20059;-79
2022/10/02 13:15:00;;;;;;;16.13;2.17;;;17.30;99.90;;;;;;4953931;29;20062;-80
2022/10/02 13:17:50;;;;;;;24.98;4.53;;;17.20;99.90;;;;;;4955134;29;20109;-80
2022/10/02 13:20:38;;;;;;;14.25;2.90;;;17.20;99.90;;;;;;4955381;28;20040;-79
2022/10/02 13:23:16;;;;;;;16.52;3.17;;;17.20;99.90;;;;;;4955363;28;20047;-79
2022/10/02 13:26:12;;;;;;;22.20;6.63;;;17.20;99.90;;;;;;4953904;29;20047;-79
2022/10/02 13:29:01;;;;;;;17.77;3.83;;;17.20;99.90;;;;;;4955639;28;20047;-80
2022/10/02 13:31:54;;;;;;;13.48;4.35;;;17.10;99.90;;;;;;4957735;29;20059;-79
2022/10/02 13:34:41;;;;;;;18.77;4.72;;;17.10;99.90;;;;;;4957345;29;20047;-79
2022/10/02 13:37:16;;;;;;;17.40;3.72;;;17.00;99.90;;;;;;4957574;29;20113;-79
2022/10/02 13:40:18;;;;;;;19.00;4.30;;;17.00;99.90;;;;;;4946316;29;20122;-79
2022/10/02 13:42:53;;;;;;;13.57;3.37;;;16.80;99.90;;;;;;4938091;29;20048;-79
2022/10/02 13:45:18;;;;;;;15.23;3.80;;;17.00;99.90;;;;;;4939540;29;20056;-79
2022/10/02 13:47:53;;;;;;;16.92;3.85;;;17.00;99.90;;;;;;4939283;29;20051;-79
2022/10/02 13:50:30;;;;;;;17.58;3.72;;;17.10;99.90;;;;;;4939436;29;20051;-79
2022/10/02 13:53:09;;;;;;;14.48;3.38;;;16.90;99.90;;;;;;4939408;29;20044;-79
2022/10/02 13:55:50;;;;;;;21.88;3.28;;;16.90;99.90;;;;;;4937841;29;20073;-79
2022/10/02 13:58:54;;;;;;;11.93;3.03;;;16.70;99.90;;;;;;4939072;29;20044;-81
2022/10/02 14:01:33;;;;;;;20.05;3.38;;;16.50;99.90;;;;;;4939220;29;20051;-79